createdAt,value
2018-08-13T00:00:01.178Z,2.87
2018-08-13T00:05:05.270Z,2.10
2018-08-13T00:10:09.322Z,3.90
2018-08-13T00:15:12.946Z,2.90
2018-08-13T00:20:16.864Z,5.57
2018-08-13T00:25:20.828Z,2.20
2018-08-13T00:30:29.214Z,2.97
2018-08-13T00:35:32.833Z,1.80
2018-08-13T00:40:36.623Z,2.40
2018-08-13T00:45:40.281Z,4.07
2018-08-13T00:50:43.944Z,4.57
2018-08-13T00:55:47.640Z,3.93
2018-08-13T01:00:51.477Z,2.13
2018-08-13T01:05:55.071Z,4.17
2018-08-13T01:10:59.661Z,3.47
2018-08-13T01:16:03.404Z,2.17
2018-08-13T01:21:07.061Z,6.30
2018-08-13T01:26:10.598Z,3.67
2018-08-13T01:31:15.072Z,2.37
2018-08-13T01:36:18.684Z,2.13
2018-08-13T01:41:22.255Z,2.17
2018-08-13T01:46:25.818Z,2.60
2018-08-13T01:51:29.372Z,2.13
2018-08-13T01:56:32.892Z,3.37
2018-08-13T02:01:36.724Z,2.97
2018-08-13T02:06:40.765Z,2.27
2018-08-13T02:11:44.581Z,3.20
2018-08-13T02:16:48.109Z,5.40
2018-08-13T02:21:51.717Z,6.20
2018-08-13T02:26:55.644Z,3.93
2018-08-13T02:31:59.254Z,2.60
2018-08-13T02:37:02.890Z,3.97
2018-08-13T02:42:06.577Z,3.23
2018-08-13T02:47:10.443Z,2.77
2018-08-13T02:52:14.694Z,4.67
2018-08-13T02:57:18.258Z,6.50
2018-08-13T03:02:22.426Z,7.27
2018-08-13T03:07:26.062Z,6.80
2018-08-13T03:12:29.781Z,6.70
2018-08-13T03:17:33.308Z,6.43
2018-08-13T03:22:37.638Z,5.33
2018-08-13T03:27:41.257Z,5.57
2018-08-13T03:32:45.105Z,4.87
2018-08-13T03:37:48.664Z,6.47
2018-08-13T03:42:52.457Z,5.17
2018-08-13T03:47:57.088Z,5.93
2018-08-13T03:53:00.745Z,4.93
2018-08-13T03:58:04.371Z,9.23
2018-08-13T04:03:08.838Z,3.97
2018-08-13T04:08:13.202Z,4.13
2018-08-13T04:13:16.872Z,3.57
2018-08-13T04:18:20.444Z,6.10
2018-08-13T04:23:24.315Z,5.20
2018-08-13T04:28:27.879Z,4.03
2018-08-13T04:33:33.439Z,4.00
2018-08-13T04:38:37.136Z,6.80
2018-08-13T04:43:40.771Z,3.73
2018-08-13T04:48:44.441Z,3.07
2018-08-13T04:53:48.049Z,3.20
2018-08-13T04:58:52.351Z,4.50
2018-08-13T05:03:56.033Z,3.77
2018-08-13T05:08:59.654Z,3.60
2018-08-13T05:14:03.597Z,5.90
2018-08-13T05:19:07.249Z,5.20
2018-08-13T05:24:10.903Z,6.20
2018-08-13T05:29:14.430Z,3.77
2018-08-13T05:34:18.022Z,5.30
2018-08-13T05:39:21.674Z,4.10
2018-08-13T05:44:25.970Z,4.43
2018-08-13T05:49:29.510Z,2.60
2018-08-13T05:54:33.160Z,1.93
2018-08-13T05:59:36.835Z,4.77
2018-08-13T06:04:40.434Z,11.70
2018-08-13T06:09:44.017Z,5.47
2018-08-13T06:14:47.648Z,3.20
2018-08-13T06:19:51.403Z,2.60
2018-08-13T06:24:55.526Z,2.53
2018-08-13T06:29:59.196Z,4.23
2018-08-13T06:35:02.858Z,4.07
2018-08-13T06:40:07.010Z,6.10
2018-08-13T06:45:11.504Z,7.37
2018-08-13T06:50:15.329Z,4.00
2018-08-13T06:55:18.889Z,3.70
2018-08-13T07:00:33.718Z,2.43
2018-08-13T07:05:37.291Z,3.87
2018-08-13T07:16:05.607Z,2.10
2018-08-13T07:21:10.185Z,2.47
2018-08-13T07:26:13.849Z,2.40
2018-08-13T07:31:17.890Z,3.77
2018-08-13T07:36:21.538Z,3.47
2018-08-13T07:41:25.292Z,4.53
2018-08-13T07:46:28.857Z,2.83
2018-08-13T07:51:32.656Z,5.77
2018-08-13T07:56:36.369Z,6.50
2018-08-13T08:01:39.942Z,3.57
2018-08-13T08:06:43.600Z,3.77
2018-08-13T08:11:47.851Z,12.13
2018-08-13T08:16:51.478Z,3.73
2018-08-13T08:21:55.094Z,4.50
2018-08-13T08:26:58.724Z,6.10
2018-08-13T08:32:02.441Z,4.43
2018-08-13T08:37:06.257Z,8.00
2018-08-13T08:42:10.289Z,4.70
2018-08-13T08:47:14.260Z,6.20
2018-08-13T08:52:19.060Z,5.60
2018-08-13T08:57:23.017Z,3.33
2018-08-13T09:02:26.641Z,4.00
2018-08-13T09:07:30.222Z,3.97
2018-08-13T09:12:36.549Z,3.57
2018-08-13T09:17:53.191Z,3.70
2018-08-13T09:23:08.089Z,3.97
2018-08-13T09:28:23.045Z,2.87
2018-08-13T09:33:37.919Z,3.10
2018-08-13T09:38:42.465Z,2.60
2018-08-13T09:43:46.845Z,3.63
2018-08-13T09:48:51.028Z,2.10
2018-08-13T09:53:54.871Z,4.33
2018-08-13T09:58:58.564Z,2.53
2018-08-13T10:04:02.234Z,2.47
2018-08-13T10:09:09.830Z,2.80
2018-08-13T10:14:13.567Z,2.43
2018-08-13T10:19:20.419Z,3.93
2018-08-13T10:24:25.254Z,2.30
2018-08-13T10:29:29.650Z,1.70
2018-08-13T10:34:35.072Z,1.97
2018-08-13T10:39:38.765Z,1.63
2018-08-13T10:44:44.272Z,1.20
2018-08-13T10:49:48.036Z,1.50
2018-08-13T10:54:51.757Z,1.27
2018-08-13T10:59:56.185Z,1.40
2018-08-13T11:04:59.833Z,1.50
2018-08-13T11:10:07.828Z,1.77
2018-08-13T11:15:17.355Z,1.40
2018-08-13T11:20:21.570Z,1.80
2018-08-13T11:25:25.352Z,2.23
2018-08-13T11:30:30.178Z,3.10
2018-08-13T11:35:34.109Z,1.70
2018-08-13T11:40:37.978Z,1.53
2018-08-13T11:45:42.019Z,4.20
2018-08-13T11:50:46.174Z,1.73
2018-08-13T11:55:49.844Z,1.90
2018-08-13T12:00:53.628Z,2.00
2018-08-13T12:05:59.075Z,2.37
2018-08-13T12:11:03.768Z,1.83
2018-08-13T12:16:08.217Z,1.97
2018-08-13T12:21:12.877Z,2.93
2018-08-13T12:26:16.617Z,2.00
2018-08-13T12:31:20.393Z,3.43
2018-08-13T12:36:24.115Z,2.93
2018-08-13T12:41:27.777Z,1.70
2018-08-13T12:46:31.425Z,1.70
2018-08-13T12:51:35.102Z,2.13
2018-08-13T12:56:39.351Z,1.93
2018-08-13T13:01:43.102Z,2.23
2018-08-13T13:06:46.869Z,2.17
2018-08-13T13:11:50.398Z,2.13
2018-08-13T13:16:54.125Z,1.80
2018-08-13T13:21:57.688Z,1.03
2018-08-13T13:27:01.358Z,1.00
2018-08-13T13:32:05.710Z,1.30
2018-08-13T13:37:09.339Z,2.20
2018-08-13T13:42:13.429Z,2.20
2018-08-13T13:47:17.084Z,2.67
2018-08-13T13:52:20.752Z,3.17
2018-08-13T13:57:24.517Z,2.20
2018-08-13T14:02:28.163Z,3.27
2018-08-13T14:07:31.931Z,6.00
2018-08-13T14:12:35.568Z,4.23
2018-08-13T14:17:40.752Z,2.13
2018-08-13T14:22:46.189Z,5.53
2018-08-13T14:27:49.936Z,10.27
2018-08-13T14:32:54.343Z,2.50
2018-08-13T14:37:58.138Z,45.10
2018-08-13T14:43:01.890Z,3.93
2018-08-13T14:48:06.181Z,4.63
2018-08-13T14:53:10.295Z,2.63
2018-08-13T14:58:14.600Z,3.47
2018-08-13T15:03:18.228Z,2.63
2018-08-13T15:08:22.035Z,4.17
2018-08-13T15:13:25.679Z,6.63
2018-08-13T15:18:29.507Z,7.43
2018-08-13T15:23:33.133Z,4.37
2018-08-13T15:28:36.874Z,4.60
2018-08-13T15:33:40.530Z,4.53
2018-08-13T15:38:44.147Z,4.43
2018-08-13T15:43:48.627Z,4.37
2018-08-13T15:48:53.036Z,3.10
2018-08-13T15:53:56.603Z,6.73
2018-08-13T15:59:00.820Z,3.60
2018-08-13T16:04:04.519Z,3.40
2018-08-13T16:09:17.965Z,3.30
2018-08-13T16:14:21.478Z,4.70
2018-08-13T16:19:25.122Z,4.67
2018-08-13T16:24:28.838Z,4.83
2018-08-13T16:29:32.631Z,5.80
2018-08-13T16:34:36.438Z,5.47
2018-08-13T16:39:40.989Z,5.77
2018-08-13T16:44:44.734Z,4.53
2018-08-13T16:49:48.483Z,5.87
2018-08-13T16:54:52.470Z,3.93
2018-08-13T16:59:56.119Z,3.83
2018-08-13T17:04:59.766Z,5.30
2018-08-13T17:10:03.373Z,7.50
2018-08-13T17:15:08.783Z,6.97
2018-08-13T17:20:15.382Z,8.60
2018-08-13T17:25:18.990Z,8.63
2018-08-13T17:30:31.207Z,6.97
2018-08-13T17:35:35.974Z,7.83
2018-08-13T17:40:39.735Z,8.37
2018-08-13T17:45:43.375Z,8.63
2018-08-13T17:50:47.032Z,7.17
2018-08-13T17:55:50.704Z,11.17
2018-08-13T18:00:54.498Z,13.07
2018-08-13T18:05:58.657Z,13.03
2018-08-13T18:11:02.339Z,11.83
2018-08-13T18:16:06.253Z,10.63
2018-08-13T18:21:09.973Z,11.37
2018-08-13T18:26:13.673Z,10.83
2018-08-13T18:31:17.529Z,8.73
2018-08-13T18:36:21.157Z,9.93
2018-08-13T18:41:24.857Z,10.87
2018-08-13T18:46:29.560Z,8.30
2018-08-13T18:51:34.317Z,10.83
2018-08-13T18:56:39.198Z,12.23
2018-08-13T19:01:43.526Z,13.87
2018-08-13T19:06:48.293Z,10.70
2018-08-13T19:11:53.323Z,12.37
2018-08-13T19:16:58.269Z,11.53
2018-08-13T19:22:04.932Z,12.03
2018-08-13T19:27:11.767Z,11.70
2018-08-13T19:32:17.234Z,14.97
2018-08-13T19:37:20.982Z,14.57
2018-08-13T19:42:25.392Z,12.97
2018-08-13T19:47:30.749Z,16.37
2018-08-13T19:52:35.420Z,11.67
2018-08-13T19:57:39.875Z,13.47
2018-08-13T20:02:43.787Z,14.93
2018-08-13T20:07:49.520Z,17.10
2018-08-13T20:12:54.232Z,18.50
2018-08-13T20:17:58.081Z,14.87
2018-08-13T20:23:03.099Z,12.47
2018-08-13T20:28:06.948Z,12.10
2018-08-13T20:33:12.612Z,12.70
2018-08-13T20:38:16.740Z,12.37
2018-08-13T20:43:20.580Z,13.47
2018-08-13T20:48:25.127Z,13.47
2018-08-13T20:53:29.520Z,13.33
2018-08-13T20:58:33.094Z,15.73
2018-08-13T21:03:37.393Z,13.93
2018-08-13T21:08:41.416Z,13.20
2018-08-13T21:13:45.210Z,12.33
2018-08-13T21:18:48.985Z,13.03
2018-08-13T21:23:53.006Z,11.63
2018-08-13T21:28:57.630Z,14.53
2018-08-13T21:34:02.129Z,12.57
2018-08-13T21:39:07.951Z,11.13
2018-08-13T21:44:11.892Z,10.93
2018-08-13T21:49:15.964Z,10.70
2018-08-13T21:54:19.695Z,10.17
2018-08-13T21:59:23.375Z,8.60
2018-08-13T22:04:27.473Z,10.53
2018-08-13T22:09:31.032Z,9.77
2018-08-13T22:14:34.832Z,10.23
2018-08-13T22:19:38.485Z,10.73
2018-08-13T22:24:53.211Z,10.67
2018-08-13T22:29:56.886Z,11.77
2018-08-13T22:35:00.607Z,13.10
2018-08-13T22:40:04.659Z,13.30
2018-08-13T22:45:09.160Z,12.67
2018-08-13T22:50:12.962Z,15.53
2018-08-13T22:55:17.862Z,14.13
2018-08-13T23:00:26.745Z,16.03
2018-08-13T23:05:30.382Z,16.47
2018-08-13T23:10:34.080Z,14.93
2018-08-13T23:15:37.833Z,15.63
2018-08-13T23:20:42.286Z,14.37
2018-08-13T23:25:46.040Z,14.67
2018-08-13T23:30:49.626Z,16.43
2018-08-13T23:35:53.294Z,16.13
2018-08-13T23:40:57.020Z,13.77
2018-08-13T23:46:00.719Z,14.07
2018-08-13T23:51:04.445Z,13.93
2018-08-13T23:56:08.177Z,16.33
